sensor_id;sensor_type;location;lat;lon;timestamp;P1;durP1;ratioP1;P2;durP2;ratioP2
9972;SDS011;5027;53.560;10.062;2022-08-19T00:01:27;10.70;;;9.80;;
9972;SDS011;5027;53.560;10.062;2022-08-19T00:04:01;7.07;;;6.47;;
9972;SDS011;5027;53.560;10.062;2022-08-19T00:06:30;12.03;;;10.80;;
9972;SDS011;5027;53.560;10.062;2022-08-19T00:08:57;13.13;;;10.83;;
9972;SDS011;5027;53.560;10.062;2022-08-19T00:11:26;5.57;;;5.17;;
9972;SDS011;5027;53.560;10.062;2022-08-19T00:13:54;8.33;;;6.97;;
9972;SDS011;5027;53.560;10.062;2022-08-19T00:16:23;11.63;;;10.40;;
9972;SDS011;5027;53.560;10.062;2022-08-19T00:18:52;11.50;;;10.37;;
9972;SDS011;5027;53.560;10.062;2022-08-19T00:21:21;12.57;;;9.60;;
9972;SDS011;5027;53.560;10.062;2022-08-19T00:23:49;6.60;;;6.03;;
9972;SDS011;5027;53.560;10.062;2022-08-19T00:26:15;15.97;;;13.10;;
9972;SDS011;5027;53.560;10.062;2022-08-19T00:28:42;16.87;;;14.10;;
9972;SDS011;5027;53.560;10.062;2022-08-19T00:31:09;9.30;;;8.40;;
9972;SDS011;5027;53.560;10.062;2022-08-19T00:33:35;18.27;;;16.33;;
9972;SDS011;5027;53.560;10.062;2022-08-19T00:36:03;18.17;;;16.27;;
9972;SDS011;5027;53.560;10.062;2022-08-19T00:38:33;19.93;;;17.13;;
9972;SDS011;5027;53.560;10.062;2022-08-19T00:41:04;19.30;;;16.80;;
9972;SDS011;5027;53.560;10.062;2022-08-19T00:43:31;18.70;;;16.63;;
9972;SDS011;5027;53.560;10.062;2022-08-19T00:45:59;18.47;;;16.50;;
9972;SDS011;5027;53.560;10.062;2022-08-19T00:48:27;15.17;;;13.57;;
9972;SDS011;5027;53.560;10.062;2022-08-19T00:50:54;7.60;;;6.80;;
9972;SDS011;5027;53.560;10.062;2022-08-19T00:53:23;13.90;;;12.50;;
9972;SDS011;5027;53.560;10.062;2022-08-19T00:55:53;18.17;;;16.27;;
9972;SDS011;5027;53.560;10.062;2022-08-19T00:58:23;6.63;;;6.03;;
9972;SDS011;5027;53.560;10.062;2022-08-19T01:00:53;10.20;;;9.30;;
9972;SDS011;5027;53.560;10.062;2022-08-19T01:03:21;18.20;;;16.30;;
9972;SDS011;5027;53.560;10.062;2022-08-19T01:05:49;17.60;;;15.90;;
9972;SDS011;5027;53.560;10.062;2022-08-19T01:08:18;17.93;;;16.10;;
9972;SDS011;5027;53.560;10.062;2022-08-19T01:10:50;18.43;;;16.50;;
9972;SDS011;5027;53.560;10.062;2022-08-19T01:13:30;17.07;;;15.27;;
9972;SDS011;5027;53.560;10.062;2022-08-19T01:16:15;17.30;;;15.67;;
9972;SDS011;5027;53.560;10.062;2022-08-19T01:18:44;20.20;;;18.07;;
9972;SDS011;5027;53.560;10.062;2022-08-19T01:23:51;22.70;;;18.77;;
9972;SDS011;5027;53.560;10.062;2022-08-19T01:26:19;21.33;;;18.17;;
9972;SDS011;5027;53.560;10.062;2022-08-19T01:28:51;20.63;;;18.43;;
9972;SDS011;5027;53.560;10.062;2022-08-19T01:31:24;19.30;;;17.30;;
9972;SDS011;5027;53.560;10.062;2022-08-19T01:33:54;18.93;;;16.93;;
9972;SDS011;5027;53.560;10.062;2022-08-19T01:36:32;21.30;;;16.57;;
9972;SDS011;5027;53.560;10.062;2022-08-19T01:39:04;19.73;;;17.67;;
9972;SDS011;5027;53.560;10.062;2022-08-19T01:41:33;21.53;;;17.53;;
9972;SDS011;5027;53.560;10.062;2022-08-19T01:44:01;19.30;;;16.47;;
9972;SDS011;5027;53.560;10.062;2022-08-19T01:46:44;19.73;;;17.27;;
9972;SDS011;5027;53.560;10.062;2022-08-19T01:49:13;18.17;;;16.47;;
9972;SDS011;5027;53.560;10.062;2022-08-19T01:51:41;17.53;;;15.73;;
9972;SDS011;5027;53.560;10.062;2022-08-19T01:54:08;19.40;;;16.03;;
9972;SDS011;5027;53.560;10.062;2022-08-19T01:56:36;17.50;;;15.30;;
9972;SDS011;5027;53.560;10.062;2022-08-19T01:59:04;15.50;;;13.97;;
9972;SDS011;5027;53.560;10.062;2022-08-19T02:01:36;17.17;;;15.43;;
9972;SDS011;5027;53.560;10.062;2022-08-19T02:04:03;17.23;;;15.00;;
9972;SDS011;5027;53.560;10.062;2022-08-19T02:06:31;17.73;;;15.90;;
9972;SDS011;5027;53.560;10.062;2022-08-19T02:08:59;17.30;;;15.50;;
9972;SDS011;5027;53.560;10.062;2022-08-19T02:11:32;17.07;;;15.43;;
9972;SDS011;5027;53.560;10.062;2022-08-19T02:14:03;18.07;;;16.13;;
9972;SDS011;5027;53.560;10.062;2022-08-19T02:16:32;17.20;;;15.43;;
9972;SDS011;5027;53.560;10.062;2022-08-19T02:18:59;15.23;;;13.67;;
9972;SDS011;5027;53.560;10.062;2022-08-19T02:21:29;17.50;;;15.63;;
9972;SDS011;5027;53.560;10.062;2022-08-19T02:23:56;15.83;;;14.20;;
9972;SDS011;5027;53.560;10.062;2022-08-19T02:26:23;14.43;;;12.83;;
9972;SDS011;5027;53.560;10.062;2022-08-19T02:28:52;18.27;;;16.33;;
9972;SDS011;5027;53.560;10.062;2022-08-19T02:31:21;18.43;;;15.67;;
9972;SDS011;5027;53.560;10.062;2022-08-19T02:33:50;17.80;;;15.97;;
9972;SDS011;5027;53.560;10.062;2022-08-19T02:36:22;20.10;;;16.70;;
9972;SDS011;5027;53.560;10.062;2022-08-19T02:38:50;20.00;;;16.13;;
9972;SDS011;5027;53.560;10.062;2022-08-19T02:41:27;16.73;;;15.03;;
9972;SDS011;5027;53.560;10.062;2022-08-19T02:43:58;19.47;;;16.37;;
9972;SDS011;5027;53.560;10.062;2022-08-19T02:46:50;19.70;;;16.97;;
9972;SDS011;5027;53.560;10.062;2022-08-19T02:49:18;19.33;;;15.93;;
9972;SDS011;5027;53.560;10.062;2022-08-19T02:51:45;20.93;;;16.47;;
9972;SDS011;5027;53.560;10.062;2022-08-19T02:54:13;18.13;;;15.53;;
9972;SDS011;5027;53.560;10.062;2022-08-19T02:56:40;16.37;;;14.60;;
9972;SDS011;5027;53.560;10.062;2022-08-19T02:59:08;20.07;;;16.57;;
9972;SDS011;5027;53.560;10.062;2022-08-19T03:01:37;19.53;;;16.87;;
9972;SDS011;5027;53.560;10.062;2022-08-19T03:04:06;18.77;;;16.57;;
9972;SDS011;5027;53.560;10.062;2022-08-19T03:06:37;21.73;;;17.97;;
9972;SDS011;5027;53.560;10.062;2022-08-19T03:09:05;20.17;;;17.67;;
9972;SDS011;5027;53.560;10.062;2022-08-19T03:11:32;20.67;;;17.80;;
9972;SDS011;5027;53.560;10.062;2022-08-19T03:14:00;21.13;;;17.57;;
9972;SDS011;5027;53.560;10.062;2022-08-19T03:16:29;22.33;;;18.03;;
9972;SDS011;5027;53.560;10.062;2022-08-19T03:18:59;23.53;;;18.27;;
9972;SDS011;5027;53.560;10.062;2022-08-19T03:21:28;23.10;;;17.97;;
9972;SDS011;5027;53.560;10.062;2022-08-19T03:23:57;22.23;;;17.67;;
9972;SDS011;5027;53.560;10.062;2022-08-19T03:26:25;24.60;;;18.50;;
9972;SDS011;5027;53.560;10.062;2022-08-19T03:28:52;24.13;;;18.87;;
9972;SDS011;5027;53.560;10.062;2022-08-19T03:31:25;26.03;;;19.43;;
9972;SDS011;5027;53.560;10.062;2022-08-19T03:34:28;27.60;;;20.87;;
9972;SDS011;5027;53.560;10.062;2022-08-19T03:36:57;24.23;;;19.10;;
9972;SDS011;5027;53.560;10.062;2022-08-19T03:39:25;29.30;;;20.47;;
9972;SDS011;5027;53.560;10.062;2022-08-19T03:41:53;28.30;;;20.60;;
9972;SDS011;5027;53.560;10.062;2022-08-19T03:44:42;28.57;;;20.73;;
9972;SDS011;5027;53.560;10.062;2022-08-19T03:47:10;28.80;;;20.90;;
9972;SDS011;5027;53.560;10.062;2022-08-19T03:49:42;28.70;;;19.97;;
9972;SDS011;5027;53.560;10.062;2022-08-19T03:52:08;25.93;;;20.37;;
9972;SDS011;5027;53.560;10.062;2022-08-19T03:54:35;30.13;;;21.87;;
9972;SDS011;5027;53.560;10.062;2022-08-19T03:57:04;31.17;;;21.77;;
9972;SDS011;5027;53.560;10.062;2022-08-19T03:59:32;28.73;;;21.10;;
9972;SDS011;5027;53.560;10.062;2022-08-19T04:02:03;29.83;;;21.13;;
9972;SDS011;5027;53.560;10.062;2022-08-19T04:04:35;32.90;;;21.20;;
9972;SDS011;5027;53.560;10.062;2022-08-19T04:07:06;23.90;;;18.33;;
9972;SDS011;5027;53.560;10.062;2022-08-19T04:09:33;28.87;;;17.63;;
9972;SDS011;5027;53.560;10.062;2022-08-19T04:12:02;29.67;;;19.10;;
9972;SDS011;5027;53.560;10.062;2022-08-19T04:14:31;26.30;;;19.87;;
9972;SDS011;5027;53.560;10.062;2022-08-19T04:16:58;28.60;;;18.57;;
9972;SDS011;5027;53.560;10.062;2022-08-19T04:19:26;24.57;;;18.10;;
9972;SDS011;5027;53.560;10.062;2022-08-19T04:21:56;23.83;;;16.77;;
9972;SDS011;5027;53.560;10.062;2022-08-19T04:24:23;23.47;;;16.33;;
9972;SDS011;5027;53.560;10.062;2022-08-19T04:26:50;15.13;;;11.57;;
9972;SDS011;5027;53.560;10.062;2022-08-19T04:29:18;20.37;;;17.67;;
9972;SDS011;5027;53.560;10.062;2022-08-19T04:31:47;26.43;;;17.43;;
9972;SDS011;5027;53.560;10.062;2022-08-19T04:34:16;20.63;;;16.03;;
9972;SDS011;5027;53.560;10.062;2022-08-19T04:36:45;20.20;;;16.00;;
9972;SDS011;5027;53.560;10.062;2022-08-19T04:39:13;26.10;;;19.50;;
9972;SDS011;5027;53.560;10.062;2022-08-19T04:41:42;12.03;;;10.80;;
9972;SDS011;5027;53.560;10.062;2022-08-19T04:44:39;11.50;;;10.00;;
9972;SDS011;5027;53.560;10.062;2022-08-19T04:47:11;24.00;;;19.73;;
9972;SDS011;5027;53.560;10.062;2022-08-19T04:49:38;26.20;;;20.33;;
9972;SDS011;5027;53.560;10.062;2022-08-19T04:52:04;14.90;;;13.13;;
9972;SDS011;5027;53.560;10.062;2022-08-19T04:54:31;25.20;;;21.67;;
9972;SDS011;5027;53.560;10.062;2022-08-19T04:57:04;23.73;;;19.27;;
9972;SDS011;5027;53.560;10.062;2022-08-19T04:59:34;24.30;;;15.90;;
9972;SDS011;5027;53.560;10.062;2022-08-19T05:02:02;28.67;;;22.77;;
9972;SDS011;5027;53.560;10.062;2022-08-19T05:04:29;27.10;;;21.27;;
9972;SDS011;5027;53.560;10.062;2022-08-19T05:06:58;13.33;;;11.63;;
9972;SDS011;5027;53.560;10.062;2022-08-19T05:09:26;30.27;;;22.57;;
9972;SDS011;5027;53.560;10.062;2022-08-19T05:12:14;28.30;;;20.37;;
9972;SDS011;5027;53.560;10.062;2022-08-19T05:14:41;26.00;;;19.43;;
9972;SDS011;5027;53.560;10.062;2022-08-19T05:17:08;35.20;;;22.97;;
9972;SDS011;5027;53.560;10.062;2022-08-19T05:19:53;28.00;;;21.40;;
9972;SDS011;5027;53.560;10.062;2022-08-19T05:22:39;29.63;;;22.63;;
9972;SDS011;5027;53.560;10.062;2022-08-19T05:25:07;31.63;;;21.07;;
9972;SDS011;5027;53.560;10.062;2022-08-19T05:27:39;21.63;;;18.07;;
9972;SDS011;5027;53.560;10.062;2022-08-19T05:30:06;30.17;;;23.53;;
9972;SDS011;5027;53.560;10.062;2022-08-19T05:32:34;28.50;;;19.10;;
9972;SDS011;5027;53.560;10.062;2022-08-19T05:35:01;32.00;;;25.60;;
9972;SDS011;5027;53.560;10.062;2022-08-19T05:37:29;34.80;;;25.77;;
9972;SDS011;5027;53.560;10.062;2022-08-19T05:39:55;32.47;;;26.23;;
9972;SDS011;5027;53.560;10.062;2022-08-19T05:42:22;33.17;;;27.63;;
9972;SDS011;5027;53.560;10.062;2022-08-19T05:44:49;24.33;;;19.30;;
9972;SDS011;5027;53.560;10.062;2022-08-19T05:47:16;19.30;;;16.27;;
9972;SDS011;5027;53.560;10.062;2022-08-19T05:49:45;30.90;;;25.23;;
9972;SDS011;5027;53.560;10.062;2022-08-19T05:52:13;35.10;;;24.30;;
9972;SDS011;5027;53.560;10.062;2022-08-19T05:54:44;35.70;;;26.00;;
9972;SDS011;5027;53.560;10.062;2022-08-19T05:57:16;35.90;;;26.73;;
9972;SDS011;5027;53.560;10.062;2022-08-19T05:59:44;32.20;;;24.37;;
9972;SDS011;5027;53.560;10.062;2022-08-19T06:02:14;32.27;;;23.77;;
9972;SDS011;5027;53.560;10.062;2022-08-19T06:04:40;20.93;;;15.10;;
9972;SDS011;5027;53.560;10.062;2022-08-19T06:07:10;29.20;;;24.23;;
9972;SDS011;5027;53.560;10.062;2022-08-19T06:09:41;31.87;;;23.10;;
9972;SDS011;5027;53.560;10.062;2022-08-19T06:12:31;26.00;;;20.93;;
9972;SDS011;5027;53.560;10.062;2022-08-19T06:15:01;26.93;;;22.13;;
9972;SDS011;5027;53.560;10.062;2022-08-19T06:17:32;26.63;;;22.73;;
9972;SDS011;5027;53.560;10.062;2022-08-19T06:20:01;27.40;;;24.13;;
9972;SDS011;5027;53.560;10.062;2022-08-19T06:22:39;26.27;;;20.57;;
9972;SDS011;5027;53.560;10.062;2022-08-19T06:25:08;21.67;;;18.43;;
9972;SDS011;5027;53.560;10.062;2022-08-19T06:27:38;25.57;;;20.30;;
9972;SDS011;5027;53.560;10.062;2022-08-19T06:30:25;27.93;;;19.87;;
9972;SDS011;5027;53.560;10.062;2022-08-19T06:32:52;26.90;;;21.63;;
9972;SDS011;5027;53.560;10.062;2022-08-19T06:35:19;24.77;;;19.63;;
9972;SDS011;5027;53.560;10.062;2022-08-19T06:37:46;25.17;;;19.03;;
9972;SDS011;5027;53.560;10.062;2022-08-19T06:40:13;23.77;;;20.37;;
9972;SDS011;5027;53.560;10.062;2022-08-19T06:42:40;24.30;;;20.33;;
9972;SDS011;5027;53.560;10.062;2022-08-19T06:45:20;25.00;;;20.30;;
9972;SDS011;5027;53.560;10.062;2022-08-19T06:47:50;19.77;;;17.40;;
9972;SDS011;5027;53.560;10.062;2022-08-19T06:50:22;17.23;;;14.93;;
9972;SDS011;5027;53.560;10.062;2022-08-19T06:52:50;25.03;;;22.37;;
9972;SDS011;5027;53.560;10.062;2022-08-19T06:55:18;14.93;;;13.43;;
9972;SDS011;5027;53.560;10.062;2022-08-19T06:57:45;24.47;;;22.00;;
9972;SDS011;5027;53.560;10.062;2022-08-19T07:00:12;25.90;;;22.50;;
9972;SDS011;5027;53.560;10.062;2022-08-19T07:02:41;20.50;;;18.30;;
9972;SDS011;5027;53.560;10.062;2022-08-19T07:05:20;27.07;;;23.13;;
9972;SDS011;5027;53.560;10.062;2022-08-19T07:07:48;30.63;;;25.20;;
9972;SDS011;5027;53.560;10.062;2022-08-19T07:10:16;29.03;;;23.40;;
9972;SDS011;5027;53.560;10.062;2022-08-19T07:12:44;29.40;;;25.20;;
9972;SDS011;5027;53.560;10.062;2022-08-19T07:15:13;31.87;;;25.33;;
9972;SDS011;5027;53.560;10.062;2022-08-19T07:17:44;31.33;;;25.23;;
9972;SDS011;5027;53.560;10.062;2022-08-19T07:20:18;30.57;;;26.00;;
9972;SDS011;5027;53.560;10.062;2022-08-19T07:22:45;35.40;;;27.10;;
9972;SDS011;5027;53.560;10.062;2022-08-19T07:25:12;15.20;;;13.70;;
9972;SDS011;5027;53.560;10.062;2022-08-19T07:27:39;28.70;;;23.47;;
9972;SDS011;5027;53.560;10.062;2022-08-19T07:30:07;11.60;;;10.40;;
9972;SDS011;5027;53.560;10.062;2022-08-19T07:32:37;10.63;;;9.63;;
9972;SDS011;5027;53.560;10.062;2022-08-19T07:35:05;21.43;;;17.87;;
9972;SDS011;5027;53.560;10.062;2022-08-19T07:37:32;22.63;;;18.73;;
9972;SDS011;5027;53.560;10.062;2022-08-19T07:40:01;30.53;;;24.43;;
9972;SDS011;5027;53.560;10.062;2022-08-19T07:42:30;10.93;;;9.93;;
9972;SDS011;5027;53.560;10.062;2022-08-19T07:44:57;29.90;;;23.50;;
9972;SDS011;5027;53.560;10.062;2022-08-19T07:47:25;28.00;;;23.73;;
9972;SDS011;5027;53.560;10.062;2022-08-19T07:50:13;22.97;;;20.50;;
9972;SDS011;5027;53.560;10.062;2022-08-19T07:52:40;26.90;;;21.87;;
9972;SDS011;5027;53.560;10.062;2022-08-19T07:55:14;26.97;;;23.33;;
9972;SDS011;5027;53.560;10.062;2022-08-19T07:58:01;25.70;;;20.37;;
9972;SDS011;5027;53.560;10.062;2022-08-19T08:00:30;26.93;;;20.80;;
9972;SDS011;5027;53.560;10.062;2022-08-19T08:02:57;28.73;;;20.37;;
9972;SDS011;5027;53.560;10.062;2022-08-19T08:05:24;24.53;;;19.50;;
9972;SDS011;5027;53.560;10.062;2022-08-19T08:08:10;22.27;;;18.23;;
9972;SDS011;5027;53.560;10.062;2022-08-19T08:10:57;22.33;;;18.73;;
9972;SDS011;5027;53.560;10.062;2022-08-19T08:13:25;23.60;;;18.47;;
9972;SDS011;5027;53.560;10.062;2022-08-19T08:15:53;20.40;;;18.20;;
9972;SDS011;5027;53.560;10.062;2022-08-19T08:18:25;22.13;;;16.83;;
9972;SDS011;5027;53.560;10.062;2022-08-19T08:20:55;17.57;;;15.33;;
9972;SDS011;5027;53.560;10.062;2022-08-19T08:23:23;15.90;;;14.13;;
9972;SDS011;5027;53.560;10.062;2022-08-19T08:25:56;17.47;;;13.30;;
9972;SDS011;5027;53.560;10.062;2022-08-19T08:28:24;17.97;;;14.43;;
9972;SDS011;5027;53.560;10.062;2022-08-19T08:30:55;16.17;;;14.03;;
9972;SDS011;5027;53.560;10.062;2022-08-19T08:33:23;17.43;;;14.07;;
9972;SDS011;5027;53.560;10.062;2022-08-19T08:36:03;15.73;;;13.93;;
9972;SDS011;5027;53.560;10.062;2022-08-19T08:38:31;17.27;;;13.77;;
9972;SDS011;5027;53.560;10.062;2022-08-19T08:41:28;15.93;;;13.37;;
9972;SDS011;5027;53.560;10.062;2022-08-19T08:43:54;15.87;;;13.87;;
9972;SDS011;5027;53.560;10.062;2022-08-19T08:46:27;15.17;;;12.97;;
9972;SDS011;5027;53.560;10.062;2022-08-19T08:52:16;17.37;;;14.90;;
9972;SDS011;5027;53.560;10.062;2022-08-19T08:54:58;20.73;;;13.97;;
9972;SDS011;5027;53.560;10.062;2022-08-19T08:57:37;16.37;;;13.53;;
9972;SDS011;5027;53.560;10.062;2022-08-19T09:00:12;18.30;;;13.23;;
9972;SDS011;5027;53.560;10.062;2022-08-19T09:02:43;12.93;;;11.30;;
9972;SDS011;5027;53.560;10.062;2022-08-19T09:05:16;19.37;;;14.57;;
9972;SDS011;5027;53.560;10.062;2022-08-19T09:16:17;17.27;;;13.90;;
9972;SDS011;5027;53.560;10.062;2022-08-19T09:18:54;22.30;;;16.23;;
9972;SDS011;5027;53.560;10.062;2022-08-19T09:21:24;20.27;;;16.17;;
9972;SDS011;5027;53.560;10.062;2022-08-19T09:23:58;19.80;;;16.33;;
9972;SDS011;5027;53.560;10.062;2022-08-19T09:26:28;24.47;;;17.10;;
9972;SDS011;5027;53.560;10.062;2022-08-19T09:29:16;23.57;;;17.33;;
9972;SDS011;5027;53.560;10.062;2022-08-19T09:31:42;21.63;;;18.63;;
9972;SDS011;5027;53.560;10.062;2022-08-19T09:34:09;11.57;;;10.47;;
9972;SDS011;5027;53.560;10.062;2022-08-19T09:36:47;21.07;;;16.83;;
9972;SDS011;5027;53.560;10.062;2022-08-19T09:39:18;19.07;;;16.27;;
9972;SDS011;5027;53.560;10.062;2022-08-19T09:41:45;17.87;;;16.03;;
9972;SDS011;5027;53.560;10.062;2022-08-19T09:44:14;10.00;;;9.13;;
9972;SDS011;5027;53.560;10.062;2022-08-19T09:46:41;22.60;;;17.97;;
9972;SDS011;5027;53.560;10.062;2022-08-19T09:49:08;23.90;;;16.73;;
9972;SDS011;5027;53.560;10.062;2022-08-19T09:51:34;24.50;;;17.10;;
9972;SDS011;5027;53.560;10.062;2022-08-19T09:54:03;21.63;;;15.97;;
9972;SDS011;5027;53.560;10.062;2022-08-19T09:56:30;19.20;;;16.30;;
9972;SDS011;5027;53.560;10.062;2022-08-19T09:58:59;16.63;;;13.63;;
9972;SDS011;5027;53.560;10.062;2022-08-19T10:01:27;24.40;;;16.97;;
9972;SDS011;5027;53.560;10.062;2022-08-19T10:03:56;18.73;;;15.67;;
9972;SDS011;5027;53.560;10.062;2022-08-19T10:06:24;18.33;;;14.50;;
9972;SDS011;5027;53.560;10.062;2022-08-19T10:09:12;17.43;;;14.03;;
9972;SDS011;5027;53.560;10.062;2022-08-19T10:11:39;21.03;;;14.87;;
9972;SDS011;5027;53.560;10.062;2022-08-19T10:14:17;21.00;;;14.77;;
9972;SDS011;5027;53.560;10.062;2022-08-19T10:16:48;16.73;;;14.10;;
9972;SDS011;5027;53.560;10.062;2022-08-19T10:19:15;18.57;;;15.27;;
9972;SDS011;5027;53.560;10.062;2022-08-19T10:21:51;18.80;;;14.37;;
9972;SDS011;5027;53.560;10.062;2022-08-19T10:24:18;15.83;;;13.50;;
9972;SDS011;5027;53.560;10.062;2022-08-19T10:26:46;8.80;;;7.90;;
9972;SDS011;5027;53.560;10.062;2022-08-19T10:29:24;18.87;;;14.17;;
9972;SDS011;5027;53.560;10.062;2022-08-19T10:32:02;16.00;;;11.43;;
9972;SDS011;5027;53.560;10.062;2022-08-19T10:34:38;13.47;;;11.07;;
9972;SDS011;5027;53.560;10.062;2022-08-19T10:37:14;22.23;;;15.63;;
9972;SDS011;5027;53.560;10.062;2022-08-19T10:39:49;18.93;;;15.00;;
9972;SDS011;5027;53.560;10.062;2022-08-19T10:42:16;18.70;;;14.67;;
9972;SDS011;5027;53.560;10.062;2022-08-19T10:44:44;18.67;;;15.73;;
9972;SDS011;5027;53.560;10.062;2022-08-19T10:47:12;10.53;;;8.60;;
9972;SDS011;5027;53.560;10.062;2022-08-19T10:49:50;17.90;;;14.60;;
9972;SDS011;5027;53.560;10.062;2022-08-19T10:52:37;21.13;;;11.30;;
9972;SDS011;5027;53.560;10.062;2022-08-19T10:55:15;22.57;;;17.07;;
9972;SDS011;5027;53.560;10.062;2022-08-19T10:58:01;20.73;;;16.43;;
9972;SDS011;5027;53.560;10.062;2022-08-19T11:00:28;20.47;;;17.20;;
9972;SDS011;5027;53.560;10.062;2022-08-19T11:02:57;18.33;;;15.13;;
9972;SDS011;5027;53.560;10.062;2022-08-19T11:05:23;19.23;;;16.00;;
9972;SDS011;5027;53.560;10.062;2022-08-19T11:07:50;24.53;;;17.20;;
9972;SDS011;5027;53.560;10.062;2022-08-19T11:10:18;25.03;;;18.40;;
9972;SDS011;5027;53.560;10.062;2022-08-19T11:12:47;17.83;;;15.90;;
9972;SDS011;5027;53.560;10.062;2022-08-19T11:15:14;19.23;;;17.23;;
9972;SDS011;5027;53.560;10.062;2022-08-19T11:17:42;12.03;;;9.67;;
9972;SDS011;5027;53.560;10.062;2022-08-19T11:20:13;21.03;;;16.43;;
9972;SDS011;5027;53.560;10.062;2022-08-19T11:22:41;11.00;;;9.60;;
9972;SDS011;5027;53.560;10.062;2022-08-19T11:25:08;20.87;;;16.67;;
9972;SDS011;5027;53.560;10.062;2022-08-19T11:27:37;16.33;;;14.47;;
9972;SDS011;5027;53.560;10.062;2022-08-19T11:30:09;20.07;;;16.03;;
9972;SDS011;5027;53.560;10.062;2022-08-19T11:32:39;23.60;;;16.57;;
9972;SDS011;5027;53.560;10.062;2022-08-19T11:35:12;30.03;;;26.43;;
9972;SDS011;5027;53.560;10.062;2022-08-19T11:37:39;21.47;;;16.93;;
9972;SDS011;5027;53.560;10.062;2022-08-19T11:40:07;13.87;;;11.73;;
9972;SDS011;5027;53.560;10.062;2022-08-19T11:42:34;22.60;;;17.17;;
9972;SDS011;5027;53.560;10.062;2022-08-19T11:45:20;20.60;;;16.47;;
9972;SDS011;5027;53.560;10.062;2022-08-19T11:47:47;15.10;;;12.40;;
9972;SDS011;5027;53.560;10.062;2022-08-19T11:50:15;14.80;;;13.13;;
9972;SDS011;5027;53.560;10.062;2022-08-19T11:52:42;12.77;;;10.30;;
9972;SDS011;5027;53.560;10.062;2022-08-19T11:55:12;9.50;;;8.50;;
9972;SDS011;5027;53.560;10.062;2022-08-19T11:57:39;14.37;;;10.97;;
9972;SDS011;5027;53.560;10.062;2022-08-19T12:00:07;8.40;;;7.10;;
9972;SDS011;5027;53.560;10.062;2022-08-19T12:02:35;9.13;;;8.23;;
9972;SDS011;5027;53.560;10.062;2022-08-19T12:05:02;8.70;;;7.43;;
9972;SDS011;5027;53.560;10.062;2022-08-19T12:07:34;9.70;;;8.37;;
9972;SDS011;5027;53.560;10.062;2022-08-19T12:10:04;10.37;;;7.93;;
9972;SDS011;5027;53.560;10.062;2022-08-19T12:12:30;9.70;;;8.03;;
9972;SDS011;5027;53.560;10.062;2022-08-19T12:14:57;9.27;;;8.37;;
9972;SDS011;5027;53.560;10.062;2022-08-19T12:17:27;8.93;;;6.90;;
9972;SDS011;5027;53.560;10.062;2022-08-19T12:19:54;7.87;;;7.07;;
9972;SDS011;5027;53.560;10.062;2022-08-19T12:22:21;9.60;;;7.83;;
9972;SDS011;5027;53.560;10.062;2022-08-19T12:24:48;14.07;;;12.73;;
9972;SDS011;5027;53.560;10.062;2022-08-19T12:27:16;8.33;;;6.77;;
9972;SDS011;5027;53.560;10.062;2022-08-19T12:30:04;11.37;;;9.70;;
9972;SDS011;5027;53.560;10.062;2022-08-19T12:32:32;9.37;;;6.90;;
9972;SDS011;5027;53.560;10.062;2022-08-19T12:34:59;9.97;;;8.57;;
9972;SDS011;5027;53.560;10.062;2022-08-19T12:37:27;8.53;;;7.20;;
9972;SDS011;5027;53.560;10.062;2022-08-19T12:39:54;11.17;;;9.67;;
9972;SDS011;5027;53.560;10.062;2022-08-19T12:42:21;7.97;;;7.17;;
9972;SDS011;5027;53.560;10.062;2022-08-19T12:44:48;7.90;;;7.03;;
9972;SDS011;5027;53.560;10.062;2022-08-19T12:47:15;6.90;;;6.30;;
9972;SDS011;5027;53.560;10.062;2022-08-19T12:49:44;11.60;;;10.43;;
9972;SDS011;5027;53.560;10.062;2022-08-19T12:52:21;8.07;;;6.70;;
9972;SDS011;5027;53.560;10.062;2022-08-19T12:54:49;11.70;;;10.60;;
9972;SDS011;5027;53.560;10.062;2022-08-19T12:57:20;7.77;;;7.07;;
9972;SDS011;5027;53.560;10.062;2022-08-19T12:59:59;11.43;;;10.27;;
9972;SDS011;5027;53.560;10.062;2022-08-19T13:02:29;11.67;;;9.33;;
9972;SDS011;5027;53.560;10.062;2022-08-19T13:05:05;10.17;;;9.17;;
9972;SDS011;5027;53.560;10.062;2022-08-19T13:07:34;7.57;;;6.87;;
9972;SDS011;5027;53.560;10.062;2022-08-19T13:10:04;7.93;;;6.90;;
9972;SDS011;5027;53.560;10.062;2022-08-19T13:12:33;8.00;;;6.83;;
9972;SDS011;5027;53.560;10.062;2022-08-19T13:15:00;10.73;;;9.53;;
9972;SDS011;5027;53.560;10.062;2022-08-19T13:17:28;7.83;;;7.03;;
9972;SDS011;5027;53.560;10.062;2022-08-19T13:19:54;7.23;;;6.47;;
9972;SDS011;5027;53.560;10.062;2022-08-19T13:22:21;12.23;;;11.07;;
9972;SDS011;5027;53.560;10.062;2022-08-19T13:24:47;10.60;;;9.60;;
9972;SDS011;5027;53.560;10.062;2022-08-19T13:27:14;9.93;;;9.00;;
9972;SDS011;5027;53.560;10.062;2022-08-19T13:29:41;7.47;;;6.77;;
9972;SDS011;5027;53.560;10.062;2022-08-19T13:32:28;7.20;;;6.50;;
9972;SDS011;5027;53.560;10.062;2022-08-19T13:35:14;8.17;;;7.37;;
9972;SDS011;5027;53.560;10.062;2022-08-19T13:37:42;7.27;;;6.57;;
9972;SDS011;5027;53.560;10.062;2022-08-19T13:40:14;11.73;;;10.07;;
9972;SDS011;5027;53.560;10.062;2022-08-19T13:42:45;7.30;;;6.70;;
9972;SDS011;5027;53.560;10.062;2022-08-19T13:45:14;7.10;;;6.40;;
9972;SDS011;5027;53.560;10.062;2022-08-19T13:47:46;7.50;;;6.80;;
9972;SDS011;5027;53.560;10.062;2022-08-19T13:50:14;7.57;;;6.87;;
9972;SDS011;5027;53.560;10.062;2022-08-19T13:52:43;9.30;;;7.50;;
9972;SDS011;5027;53.560;10.062;2022-08-19T13:55:10;10.10;;;9.20;;
9972;SDS011;5027;53.560;10.062;2022-08-19T13:57:38;8.43;;;7.53;;
9972;SDS011;5027;53.560;10.062;2022-08-19T14:00:12;11.97;;;10.87;;
9972;SDS011;5027;53.560;10.062;2022-08-19T14:02:44;11.57;;;10.47;;
9972;SDS011;5027;53.560;10.062;2022-08-19T14:05:14;11.13;;;10.13;;
9972;SDS011;5027;53.560;10.062;2022-08-19T14:07:42;12.10;;;11.00;;
9972;SDS011;5027;53.560;10.062;2022-08-19T14:10:09;10.80;;;9.90;;
9972;SDS011;5027;53.560;10.062;2022-08-19T14:12:38;11.10;;;10.10;;
9972;SDS011;5027;53.560;10.062;2022-08-19T14:15:06;11.20;;;10.20;;
9972;SDS011;5027;53.560;10.062;2022-08-19T14:17:34;8.53;;;7.83;;
9972;SDS011;5027;53.560;10.062;2022-08-19T14:20:04;8.47;;;7.77;;
9972;SDS011;5027;53.560;10.062;2022-08-19T14:22:36;11.73;;;10.73;;
9972;SDS011;5027;53.560;10.062;2022-08-19T14:25:06;10.90;;;9.90;;
9972;SDS011;5027;53.560;10.062;2022-08-19T14:27:35;12.00;;;10.80;;
9972;SDS011;5027;53.560;10.062;2022-08-19T14:30:04;12.13;;;10.93;;
9972;SDS011;5027;53.560;10.062;2022-08-19T14:32:33;9.80;;;9.00;;
9972;SDS011;5027;53.560;10.062;2022-08-19T14:35:03;11.27;;;10.27;;
9972;SDS011;5027;53.560;10.062;2022-08-19T14:37:31;10.30;;;9.33;;
9972;SDS011;5027;53.560;10.062;2022-08-19T14:40:10;11.37;;;10.27;;
9972;SDS011;5027;53.560;10.062;2022-08-19T14:42:39;11.70;;;10.60;;
9972;SDS011;5027;53.560;10.062;2022-08-19T14:45:07;12.40;;;11.20;;
9972;SDS011;5027;53.560;10.062;2022-08-19T14:47:34;12.47;;;11.37;;
9972;SDS011;5027;53.560;10.062;2022-08-19T14:50:06;10.90;;;9.80;;
9972;SDS011;5027;53.560;10.062;2022-08-19T14:52:36;13.17;;;12.00;;
9972;SDS011;5027;53.560;10.062;2022-08-19T14:55:03;14.57;;;13.27;;
9972;SDS011;5027;53.560;10.062;2022-08-19T14:57:32;12.80;;;11.80;;
9972;SDS011;5027;53.560;10.062;2022-08-19T14:59:59;12.10;;;11.10;;
9972;SDS011;5027;53.560;10.062;2022-08-19T15:02:26;13.50;;;12.10;;
9972;SDS011;5027;53.560;10.062;2022-08-19T15:05:00;13.37;;;12.17;;
9972;SDS011;5027;53.560;10.062;2022-08-19T15:07:28;13.33;;;11.97;;
9972;SDS011;5027;53.560;10.062;2022-08-19T15:09:55;11.97;;;10.97;;
9972;SDS011;5027;53.560;10.062;2022-08-19T15:12:22;10.97;;;7.77;;